createdAt,value
2022-12-07T18:09:37.562Z,116.33
2022-12-07T18:12:06.764Z,112.90
2022-12-07T18:14:36.386Z,120.22
2022-12-07T18:17:04.684Z,126.88
2022-12-07T18:19:33.636Z,107.78
2022-12-07T18:22:01.859Z,93.80
2022-12-07T18:24:36.432Z,82.53
2022-12-07T18:27:07.480Z,80.05
2022-12-07T18:29:35.728Z,80.68
2022-12-07T18:32:05.785Z,77.30
2022-12-07T18:34:34.528Z,77.55
2022-12-07T18:37:02.716Z,79.60
2022-12-07T18:39:34.027Z,69.43
2022-12-07T18:42:02.952Z,73.78
2022-12-07T18:44:31.539Z,68.68
2022-12-07T18:47:00.200Z,71.60
2022-12-07T18:49:28.891Z,77.55
2022-12-07T18:51:57.504Z,74.85
2022-12-07T18:54:26.155Z,78.70
2022-12-07T18:56:56.049Z,74.55
2022-12-07T18:59:42.910Z,75.72
2022-12-07T19:02:12.750Z,75.80
2022-12-07T19:04:41.300Z,68.50
2022-12-07T19:07:09.310Z,70.82
2022-12-07T19:09:37.404Z,67.70
2022-12-07T19:12:06.030Z,71.22
2022-12-07T19:14:37.175Z,67.82
2022-12-07T19:17:08.955Z,74.32
2022-12-07T19:19:40.273Z,65.30
2022-12-07T19:22:10.165Z,67.53
2022-12-07T19:24:38.694Z,68.22
2022-12-07T19:27:07.486Z,61.95
2022-12-07T19:29:37.468Z,74.70
2022-12-07T19:32:06.533Z,72.85
2022-12-07T19:34:35.469Z,76.40
2022-12-07T19:37:03.870Z,72.95
2022-12-07T19:39:32.310Z,72.32
2022-12-07T19:42:00.430Z,70.32
2022-12-07T19:44:30.671Z,76.07
2022-12-07T19:47:04.699Z,80.03
2022-12-07T19:49:35.707Z,76.70
2022-12-07T19:52:07.314Z,77.18
2022-12-07T19:54:36.637Z,79.38
2022-12-07T19:57:07.985Z,78.68
2022-12-07T19:59:36.780Z,78.70
2022-12-07T20:02:05.141Z,78.00
2022-12-07T20:04:36.568Z,74.45
2022-12-07T20:07:05.284Z,82.38
2022-12-07T20:09:33.499Z,88.38
2022-12-07T20:12:28.244Z,96.80
2022-12-07T20:14:57.165Z,89.80
2022-12-07T20:17:25.363Z,83.63
2022-12-07T20:19:53.895Z,75.85
2022-12-07T20:22:22.415Z,78.55
2022-12-07T20:24:50.975Z,82.38
2022-12-07T20:27:19.577Z,73.30
2022-12-07T20:29:49.575Z,79.45
2022-12-07T20:32:18.396Z,79.78
2022-12-07T20:34:47.275Z,81.45
2022-12-07T20:37:15.878Z,81.13
2022-12-07T20:39:44.470Z,79.63
2022-12-07T20:42:31.569Z,87.78
2022-12-07T20:45:03.228Z,76.93
2022-12-07T20:47:33.780Z,70.80
2022-12-07T20:50:09.783Z,74.75
2022-12-07T20:52:38.538Z,72.23
2022-12-07T20:55:07.185Z,73.93
2022-12-07T20:57:35.383Z,70.20
2022-12-07T21:00:08.140Z,76.97
2022-12-07T21:02:40.970Z,73.55
2022-12-07T21:05:09.505Z,79.57
2022-12-07T21:07:38.069Z,75.22
2022-12-07T21:10:07.700Z,78.53
2022-12-07T21:12:36.246Z,79.65
2022-12-07T21:15:06.968Z,74.95
2022-12-07T21:17:36.000Z,80.53
2022-12-07T21:20:04.414Z,83.57
2022-12-07T21:22:32.973Z,72.20
2022-12-07T21:25:01.521Z,80.13
2022-12-07T21:27:30.120Z,75.70
2022-12-07T21:29:58.080Z,78.43
2022-12-07T21:32:26.071Z,78.80
2022-12-07T21:34:54.108Z,83.03
2022-12-07T21:37:22.060Z,84.65
2022-12-07T21:39:49.899Z,85.78
2022-12-07T21:42:17.689Z,85.07
2022-12-07T21:44:45.869Z,85.50
2022-12-07T21:47:13.800Z,86.22
2022-12-07T21:49:41.744Z,77.60
2022-12-07T21:52:09.895Z,81.82
2022-12-07T21:54:37.824Z,80.70
2022-12-07T21:57:05.758Z,79.88
2022-12-07T21:59:34.328Z,72.25
2022-12-07T22:02:02.909Z,83.78
2022-12-07T22:04:31.204Z,78.05
2022-12-07T22:06:59.543Z,82.95
2022-12-07T22:09:30.381Z,81.38
2022-12-07T22:11:59.086Z,77.03
2022-12-07T22:14:45.965Z,85.28
2022-12-07T22:17:14.763Z,89.45
2022-12-07T22:19:42.930Z,82.68
2022-12-07T22:22:16.418Z,89.28
2022-12-07T22:24:45.289Z,90.53
2022-12-07T22:27:14.643Z,79.95
2022-12-07T22:29:43.323Z,91.45
2022-12-07T22:32:39.771Z,86.35
2022-12-07T22:35:00.490Z,84.95
2022-12-07T22:37:30.405Z,84.57
2022-12-07T22:39:58.926Z,93.28
2022-12-07T22:42:27.324Z,88.05
2022-12-07T22:44:55.523Z,83.75
2022-12-07T22:47:23.691Z,80.07
2022-12-07T22:49:51.939Z,86.57
2022-12-07T22:52:20.374Z,77.75
2022-12-07T22:54:48.925Z,87.25
2022-12-07T22:57:17.494Z,88.47
2022-12-07T22:59:46.354Z,79.43
2022-12-07T23:02:14.859Z,80.63
2022-12-07T23:04:43.633Z,88.18
2022-12-07T23:07:13.191Z,78.20
2022-12-07T23:09:41.703Z,79.50
2022-12-07T23:12:29.667Z,75.30
2022-12-07T23:14:57.699Z,77.30
2022-12-07T23:17:26.169Z,77.15
2022-12-07T23:19:56.187Z,73.95
2022-12-07T23:22:25.189Z,81.82
2022-12-07T23:24:53.578Z,75.00
2022-12-07T23:27:21.739Z,76.30
2022-12-07T23:29:50.458Z,75.50
2022-12-07T23:32:18.699Z,77.13
2022-12-07T23:34:46.779Z,74.80
2022-12-07T23:37:15.257Z,75.90
2022-12-07T23:39:43.584Z,73.93
2022-12-07T23:42:13.046Z,76.68
2022-12-07T23:44:41.340Z,82.20
2022-12-07T23:47:09.649Z,70.78
2022-12-07T23:49:38.023Z,72.40
2022-12-07T23:52:06.659Z,78.07
2022-12-07T23:54:34.977Z,74.22
2022-12-07T23:57:03.309Z,75.97
2022-12-07T23:59:31.979Z,75.35
